Shenandoah, Georgia
Current Conditions -  °F | °C
As of 3:15 AM on Tuesday 27 Jan 2015 (Local Time) from KCCO Reporting Station
Overcast Overcast  
Wind Chill: 33°   Ceiling: 5000
Heat Index: 33°   Visibility: 10mi
Dew Point: 31°   Wind: 3mph
Humidity: 92%   Direction: 280°W
Pressure: 29.91"   Gusts: NA
Location:  33.4176°N, 84.7076°W
Report Text: KCCO 270815Z AUTO 28003KT 10SM OVC050 01/00 A2991 RMK AO2 T00071005
Loading
Personal Weather Stations






























Interactive Weather Map New forecast layout! Learn more

10-Day Weather Forecast

Advertisements
Track Severe Weather on mobile